createdAt,value
2023-07-02T00:00:07.719Z,3.05
2023-07-02T00:02:34.796Z,2.50
2023-07-02T00:05:01.538Z,2.50
2023-07-02T00:07:28.685Z,2.70
2023-07-02T00:09:55.621Z,2.58
2023-07-02T00:12:22.298Z,2.60
2023-07-02T00:14:49.052Z,2.88
2023-07-02T00:17:15.827Z,2.75
2023-07-02T00:19:43.163Z,3.30
2023-07-02T00:22:10.579Z,3.50
2023-07-02T00:24:38.021Z,3.65
2023-07-02T00:27:04.928Z,3.20
2023-07-02T00:29:31.654Z,3.03
2023-07-02T00:31:58.317Z,2.92
2023-07-02T00:34:26.198Z,3.28
2023-07-02T00:36:53.371Z,3.40
2023-07-02T00:39:21.091Z,3.25
2023-07-02T00:41:47.860Z,3.25
2023-07-02T00:44:15.641Z,3.40
2023-07-02T00:46:42.494Z,3.00
2023-07-02T00:49:09.346Z,3.25
2023-07-02T00:51:36.089Z,3.83
2023-07-02T00:54:02.858Z,3.63
2023-07-02T00:56:29.666Z,3.40
2023-07-02T00:58:59.919Z,3.65
2023-07-02T01:01:29.484Z,4.22
2023-07-02T01:04:03.280Z,3.38
2023-07-02T01:06:31.651Z,3.28
2023-07-02T01:08:59.964Z,3.80
2023-07-02T01:11:29.156Z,3.67
2023-07-02T01:14:02.488Z,3.85
2023-07-02T01:16:32.026Z,3.17
2023-07-02T01:18:58.842Z,3.22
2023-07-02T01:21:26.349Z,3.60
2023-07-02T01:23:53.064Z,4.00
2023-07-02T01:26:20.042Z,3.65
2023-07-02T01:28:46.755Z,4.25
2023-07-02T01:31:13.507Z,3.90
2023-07-02T01:33:40.269Z,3.72
2023-07-02T01:36:07.076Z,4.35
2023-07-02T01:38:33.749Z,4.72
2023-07-02T01:41:00.405Z,4.57
2023-07-02T01:43:27.083Z,4.10
2023-07-02T01:45:54.036Z,4.10
2023-07-02T01:48:20.978Z,3.97
2023-07-02T01:50:47.929Z,4.00
2023-07-02T01:53:14.823Z,4.40
2023-07-02T01:55:41.560Z,4.03
2023-07-02T01:58:08.301Z,4.65
2023-07-02T02:00:35.062Z,4.32
2023-07-02T02:03:01.872Z,4.60
2023-07-02T02:05:28.696Z,3.92
2023-07-02T02:07:55.986Z,3.97
2023-07-02T02:10:22.692Z,4.43
2023-07-02T02:12:49.396Z,4.60
2023-07-02T02:15:16.261Z,5.05
2023-07-02T02:17:42.937Z,4.50
2023-07-02T02:20:10.100Z,4.90
2023-07-02T02:22:36.828Z,4.72
2023-07-02T02:25:04.649Z,4.50
2023-07-02T02:27:31.789Z,5.85
2023-07-02T02:29:59.801Z,4.72
2023-07-02T02:32:26.603Z,5.35
2023-07-02T02:34:53.429Z,5.30
2023-07-02T02:37:22.710Z,4.80
2023-07-02T02:39:49.372Z,4.43
2023-07-02T02:42:16.015Z,4.97
2023-07-02T02:44:42.679Z,4.80
2023-07-02T02:47:09.517Z,4.95
2023-07-02T02:49:38.712Z,4.57
2023-07-02T02:52:05.492Z,6.05
2023-07-02T02:54:32.171Z,5.40
2023-07-02T02:56:58.872Z,5.65
2023-07-02T02:59:26.812Z,6.03
2023-07-02T03:01:53.628Z,5.05
2023-07-02T03:04:24.989Z,5.20
2023-07-02T03:06:53.905Z,5.72
2023-07-02T03:09:20.896Z,6.03
2023-07-02T03:11:48.610Z,5.55
2023-07-02T03:14:15.999Z,5.68
2023-07-02T03:16:46.381Z,5.30
2023-07-02T03:19:15.961Z,6.30
2023-07-02T03:21:45.986Z,6.45
2023-07-02T03:24:14.379Z,6.40
2023-07-02T03:26:41.921Z,7.68
2023-07-02T03:29:08.751Z,6.13
2023-07-02T03:31:35.538Z,6.45
2023-07-02T03:34:09.112Z,6.72
2023-07-02T03:36:36.253Z,6.57
2023-07-02T03:39:03.331Z,5.97
2023-07-02T03:41:30.046Z,6.55
2023-07-02T03:43:56.767Z,6.95
2023-07-02T03:46:23.510Z,6.68
2023-07-02T03:48:50.208Z,6.63
2023-07-02T03:51:17.174Z,7.10
2023-07-02T03:53:44.004Z,6.88
2023-07-02T03:56:10.752Z,6.78
2023-07-02T03:58:37.445Z,6.50
2023-07-02T04:01:04.142Z,6.57
2023-07-02T04:03:31.009Z,6.80
2023-07-02T04:05:57.813Z,6.70
2023-07-02T04:08:26.066Z,7.03
2023-07-02T04:10:52.764Z,6.53
2023-07-02T04:13:19.592Z,7.07
2023-07-02T04:15:46.288Z,6.20
2023-07-02T04:18:13.019Z,7.00
2023-07-02T04:20:39.828Z,6.13
2023-07-02T04:23:07.267Z,6.07
2023-07-02T04:25:58.567Z,7.07
2023-07-02T04:28:21.503Z,6.53
2023-07-02T04:30:51.180Z,6.32
2023-07-02T04:33:18.768Z,6.10
2023-07-02T04:35:45.758Z,6.22
2023-07-02T04:38:13.600Z,6.88
2023-07-02T04:40:40.483Z,6.78
2023-07-02T04:43:07.383Z,6.85
2023-07-02T04:45:37.560Z,5.93
2023-07-02T04:48:05.442Z,7.30
2023-07-02T04:50:32.324Z,6.18
2023-07-02T04:52:59.093Z,6.47
2023-07-02T04:55:25.846Z,6.25
2023-07-02T04:57:52.639Z,6.47
2023-07-02T05:00:20.065Z,6.63
2023-07-02T05:02:46.867Z,5.82
2023-07-02T05:05:13.652Z,6.22
2023-07-02T05:07:41.902Z,6.15
2023-07-02T05:10:09.065Z,5.55
2023-07-02T05:12:35.849Z,5.78
2023-07-02T05:15:02.607Z,5.53
2023-07-02T05:17:30.520Z,5.22
2023-07-02T05:19:57.562Z,5.07
2023-07-02T05:22:24.819Z,4.38
2023-07-02T05:24:51.759Z,4.85
2023-07-02T05:27:18.579Z,4.70
2023-07-02T05:29:45.573Z,4.68
2023-07-02T05:32:12.602Z,4.30
2023-07-02T05:34:39.407Z,4.70
2023-07-02T05:37:07.035Z,4.90
2023-07-02T05:39:35.442Z,5.05
2023-07-02T05:42:02.211Z,4.88
2023-07-02T05:44:29.045Z,5.03
2023-07-02T05:46:55.890Z,4.80
2023-07-02T05:49:22.840Z,5.25
2023-07-02T05:51:49.896Z,4.60
2023-07-02T05:54:16.657Z,4.93
2023-07-02T05:56:43.480Z,4.80
2023-07-02T05:59:10.314Z,4.97
2023-07-02T06:01:37.921Z,5.60
2023-07-02T06:04:05.012Z,5.22
2023-07-02T06:06:31.995Z,5.20
2023-07-02T06:08:59.019Z,5.00
2023-07-02T06:11:25.881Z,5.53
2023-07-02T06:13:52.637Z,5.10
2023-07-02T06:16:19.638Z,5.20
2023-07-02T06:18:47.606Z,4.57
2023-07-02T06:21:14.406Z,5.05
2023-07-02T06:23:44.949Z,3.95
2023-07-02T06:26:11.846Z,4.53
2023-07-02T06:28:39.854Z,4.05
2023-07-02T06:31:06.768Z,4.07
2023-07-02T06:33:33.606Z,3.65
2023-07-02T06:36:00.447Z,3.50
2023-07-02T06:38:27.288Z,3.72
2023-07-02T06:40:54.106Z,3.92
2023-07-02T06:43:21.050Z,3.75
2023-07-02T06:45:47.914Z,3.63
2023-07-02T06:48:19.062Z,3.63
2023-07-02T06:50:47.180Z,4.28
2023-07-02T06:53:14.543Z,3.75
2023-07-02T06:55:41.260Z,3.35
2023-07-02T06:58:08.437Z,3.63
2023-07-02T07:00:38.020Z,3.35
2023-07-02T07:03:05.585Z,3.72
2023-07-02T07:05:32.983Z,3.33
2023-07-02T07:08:03.066Z,3.80
2023-07-02T07:10:35.214Z,3.78
2023-07-02T07:13:05.804Z,3.85
2023-07-02T07:15:34.889Z,3.67
2023-07-02T07:18:02.262Z,3.63
2023-07-02T07:20:29.321Z,3.67
2023-07-02T07:22:56.230Z,3.15
2023-07-02T07:25:23.079Z,3.47
2023-07-02T07:27:50.033Z,3.45
2023-07-02T07:30:16.802Z,3.67
2023-07-02T07:32:43.521Z,3.60
2023-07-02T07:35:10.259Z,3.83
2023-07-02T07:37:37.405Z,3.83
2023-07-02T07:40:24.185Z,3.97
2023-07-02T07:42:50.998Z,3.45
2023-07-02T07:45:17.825Z,3.05
2023-07-02T07:47:45.180Z,3.42
2023-07-02T07:50:12.262Z,3.20
2023-07-02T07:52:43.042Z,3.42
2023-07-02T07:55:10.367Z,3.83
2023-07-02T07:57:38.183Z,3.15
2023-07-02T08:00:08.201Z,3.83
2023-07-02T08:02:35.241Z,3.58
2023-07-02T08:05:02.522Z,3.30
2023-07-02T08:07:29.244Z,3.60
2023-07-02T08:09:55.948Z,3.38
2023-07-02T08:12:22.670Z,4.13
2023-07-02T08:14:50.393Z,3.78
2023-07-02T08:17:17.093Z,4.38
2023-07-02T08:19:43.892Z,3.83
2023-07-02T08:22:10.887Z,4.88
2023-07-02T08:24:37.708Z,4.07
2023-07-02T08:27:05.163Z,4.38
2023-07-02T08:29:34.364Z,4.75
2023-07-02T08:32:01.322Z,5.25
2023-07-02T08:34:31.212Z,4.80
2023-07-02T08:36:58.191Z,5.10
2023-07-02T08:39:24.848Z,5.38
2023-07-02T08:41:53.142Z,5.07
2023-07-02T08:44:21.827Z,4.70
2023-07-02T08:46:52.035Z,4.72
2023-07-02T08:49:19.850Z,4.93
2023-07-02T08:51:47.744Z,5.32
2023-07-02T08:54:15.506Z,5.03
2023-07-02T08:56:42.281Z,4.75
2023-07-02T08:59:12.693Z,4.82
2023-07-02T09:01:47.321Z,5.63
2023-07-02T09:04:34.968Z,5.82
2023-07-02T09:07:07.140Z,5.50
2023-07-02T09:09:34.372Z,6.05
2023-07-02T09:12:01.772Z,5.47
2023-07-02T09:14:31.336Z,5.90
2023-07-02T09:17:11.048Z,6.30
2023-07-02T09:19:48.867Z,5.60
2023-07-02T09:22:17.587Z,5.05
2023-07-02T09:24:54.238Z,4.25
2023-07-02T09:27:22.012Z,4.40
2023-07-02T09:29:55.289Z,5.38
2023-07-02T09:32:29.445Z,5.13
2023-07-02T09:34:59.348Z,5.15
2023-07-02T09:37:26.291Z,4.93
2023-07-02T09:39:53.633Z,6.80
2023-07-02T09:42:21.292Z,5.22
2023-07-02T09:44:48.388Z,4.90
2023-07-02T09:47:19.336Z,4.88
2023-07-02T09:49:58.003Z,4.47
2023-07-02T09:52:25.225Z,4.72
2023-07-02T09:54:52.024Z,5.68
2023-07-02T09:57:18.937Z,5.80
2023-07-02T09:59:45.872Z,4.90
2023-07-02T10:02:13.791Z,5.10
2023-07-02T10:04:45.775Z,5.32
2023-07-02T10:07:13.117Z,5.40
2023-07-02T10:09:48.057Z,5.13
2023-07-02T10:12:28.095Z,4.65
2023-07-02T10:14:56.819Z,4.70
2023-07-02T10:17:32.340Z,4.65
2023-07-02T10:20:08.725Z,4.30
2023-07-02T10:22:45.103Z,5.15
2023-07-02T10:25:11.981Z,7.93
2023-07-02T10:27:43.161Z,5.32
2023-07-02T10:30:11.403Z,5.63
2023-07-02T10:32:39.758Z,4.57
2023-07-02T10:35:19.616Z,5.22
2023-07-02T10:37:46.609Z,4.90
2023-07-02T10:40:13.801Z,6.43
2023-07-02T10:42:51.456Z,4.97
2023-07-02T10:45:18.684Z,4.65
2023-07-02T10:47:45.913Z,5.32
2023-07-02T10:50:20.646Z,5.13
2023-07-02T10:52:48.166Z,4.57
2023-07-02T10:55:19.879Z,5.43
2023-07-02T10:57:46.912Z,4.38
2023-07-02T11:00:14.154Z,5.05
2023-07-02T11:02:41.781Z,5.88
2023-07-02T11:05:13.768Z,5.68
2023-07-02T11:07:44.371Z,5.50
2023-07-02T11:10:13.036Z,5.35
2023-07-02T11:12:39.875Z,5.53
2023-07-02T11:15:19.677Z,5.80
2023-07-02T11:17:47.133Z,5.55
2023-07-02T11:20:15.398Z,6.40
2023-07-02T11:22:42.427Z,5.97
2023-07-02T11:25:11.300Z,5.95
2023-07-02T11:27:38.547Z,6.45
2023-07-02T11:30:06.429Z,5.80
2023-07-02T11:32:37.798Z,5.65
2023-07-02T11:35:04.823Z,5.97
2023-07-02T11:37:31.628Z,5.63
2023-07-02T11:39:58.351Z,6.50
2023-07-02T11:42:25.090Z,5.30
2023-07-02T11:44:51.916Z,5.85
2023-07-02T11:47:18.649Z,5.80
2023-07-02T11:49:45.435Z,5.57
2023-07-02T11:52:13.530Z,5.47
2023-07-02T11:54:40.679Z,5.85
2023-07-02T11:57:07.899Z,6.07
2023-07-02T11:59:34.681Z,9.45
2023-07-02T12:02:01.597Z,5.40
2023-07-02T12:04:30.062Z,6.38
2023-07-02T12:06:57.084Z,6.55
2023-07-02T12:09:23.822Z,6.22
2023-07-02T12:11:51.001Z,5.50
2023-07-02T12:14:17.693Z,6.22
2023-07-02T12:16:44.452Z,5.85
2023-07-02T12:19:11.296Z,6.82
2023-07-02T12:21:37.988Z,6.07
2023-07-02T12:24:09.699Z,6.07
2023-07-02T12:26:37.203Z,6.03
2023-07-02T12:29:05.130Z,6.40
2023-07-02T12:31:32.242Z,6.07
2023-07-02T12:33:59.143Z,6.18
2023-07-02T12:36:26.075Z,6.55
2023-07-02T12:38:52.913Z,6.22
2023-07-02T12:41:19.586Z,6.22
2023-07-02T12:43:46.390Z,6.90
2023-07-02T12:46:13.229Z,6.32
2023-07-02T12:48:40.401Z,6.50
2023-07-02T12:51:07.513Z,5.57
2023-07-02T12:53:34.751Z,6.55
2023-07-02T12:56:01.945Z,6.38
2023-07-02T12:58:28.926Z,6.57
2023-07-02T13:00:56.372Z,7.05
2023-07-02T13:03:24.722Z,5.80
2023-07-02T13:05:51.883Z,6.38
2023-07-02T13:08:19.169Z,5.72
2023-07-02T13:10:46.383Z,6.00
2023-07-02T13:13:23.395Z,4.90
2023-07-02T13:15:53.705Z,5.93
2023-07-02T13:18:21.355Z,4.75
2023-07-02T13:20:48.289Z,4.72
2023-07-02T13:23:15.200Z,5.05
2023-07-02T13:25:44.806Z,5.18
2023-07-02T13:28:11.947Z,4.45
2023-07-02T13:30:38.942Z,5.35
2023-07-02T13:33:05.703Z,5.40
2023-07-02T13:35:33.288Z,4.85
2023-07-02T13:38:05.458Z,5.25
2023-07-02T13:40:32.309Z,5.10
2023-07-02T13:42:59.187Z,4.75
2023-07-02T13:45:25.953Z,5.50
2023-07-02T13:47:52.917Z,5.60
2023-07-02T13:50:21.331Z,5.47
2023-07-02T13:52:49.319Z,5.18
2023-07-02T13:55:16.749Z,5.43
2023-07-02T13:57:44.539Z,5.78
2023-07-02T14:00:12.400Z,5.68
2023-07-02T14:02:40.175Z,5.00
2023-07-02T14:05:07.606Z,4.90
2023-07-02T14:07:34.456Z,4.80
2023-07-02T14:10:02.039Z,5.10
2023-07-02T14:12:29.628Z,4.30
2023-07-02T14:14:56.985Z,4.88
2023-07-02T14:17:26.933Z,4.60
2023-07-02T14:19:54.973Z,4.95
2023-07-02T14:22:21.987Z,4.93
2023-07-02T14:24:49.653Z,4.88
2023-07-02T14:27:17.603Z,6.28
2023-07-02T14:29:44.981Z,5.50
2023-07-02T14:32:12.251Z,5.20
2023-07-02T14:34:39.497Z,7.88
2023-07-02T14:37:06.858Z,5.38
2023-07-02T14:39:33.574Z,4.40
2023-07-02T14:42:00.316Z,5.53
2023-07-02T14:44:27.271Z,5.13
2023-07-02T14:46:54.038Z,5.30
2023-07-02T14:49:21.604Z,5.13
2023-07-02T14:51:48.777Z,5.30
2023-07-02T14:54:17.515Z,5.03
2023-07-02T14:56:44.597Z,5.82
2023-07-02T14:59:11.533Z,5.50
2023-07-02T15:01:38.260Z,4.72
2023-07-02T15:04:05.311Z,4.85
2023-07-02T15:06:33.661Z,5.13
2023-07-02T15:09:00.747Z,5.63
2023-07-02T15:11:29.273Z,6.22
2023-07-02T15:13:56.264Z,5.90
2023-07-02T15:16:24.386Z,5.30
2023-07-02T15:18:51.112Z,5.88
2023-07-02T15:21:19.428Z,5.75
2023-07-02T15:23:46.232Z,5.53
2023-07-02T15:26:13.122Z,5.80
2023-07-02T15:28:39.957Z,5.38
2023-07-02T15:31:09.572Z,5.50
2023-07-02T15:33:37.189Z,5.57
2023-07-02T15:36:05.026Z,6.13
2023-07-02T15:38:32.163Z,6.32
2023-07-02T15:41:12.230Z,6.50
2023-07-02T15:43:40.696Z,6.50
2023-07-02T15:46:08.148Z,5.50
2023-07-02T15:48:34.921Z,5.72
2023-07-02T15:51:04.167Z,6.45
2023-07-02T15:53:30.901Z,5.72
2023-07-02T15:55:58.647Z,5.53
2023-07-02T15:58:27.625Z,5.80
2023-07-02T16:00:54.998Z,4.85
2023-07-02T16:03:24.571Z,5.80
2023-07-02T16:05:59.817Z,5.47
2023-07-02T16:08:26.975Z,5.55
2023-07-02T16:10:53.749Z,5.45
2023-07-02T16:13:20.624Z,5.30
2023-07-02T16:15:50.022Z,5.35
2023-07-02T16:18:18.657Z,5.32
2023-07-02T16:20:56.014Z,4.60
2023-07-02T16:23:22.914Z,5.18
2023-07-02T16:25:57.071Z,4.85
2023-07-02T16:28:23.918Z,4.95
2023-07-02T16:30:50.628Z,4.60
2023-07-02T16:33:18.485Z,4.40
2023-07-02T16:35:46.412Z,5.10
2023-07-02T16:38:13.755Z,4.60
2023-07-02T16:40:40.555Z,4.70
2023-07-02T16:43:07.906Z,4.63
2023-07-02T16:45:34.772Z,4.88
2023-07-02T16:48:04.539Z,5.55
2023-07-02T16:50:31.236Z,4.18
2023-07-02T16:52:57.848Z,4.53
2023-07-02T16:55:24.497Z,4.28
2023-07-02T16:57:51.124Z,4.43
2023-07-02T17:00:18.221Z,4.13
2023-07-02T17:02:44.951Z,4.07
2023-07-02T17:05:11.664Z,4.50
2023-07-02T17:07:38.308Z,3.60
2023-07-02T17:10:05.284Z,4.00
2023-07-02T17:12:31.932Z,4.00
2023-07-02T17:14:58.652Z,4.03
2023-07-02T17:17:28.649Z,3.78
2023-07-02T17:19:57.210Z,4.20
2023-07-02T17:22:27.568Z,4.10
2023-07-02T17:24:55.274Z,4.20
2023-07-02T17:27:24.781Z,3.95
2023-07-02T17:30:00.271Z,4.22
2023-07-02T17:32:28.858Z,4.30
2023-07-02T17:34:55.928Z,3.92
2023-07-02T17:37:23.199Z,4.97
2023-07-02T17:39:50.365Z,3.70
2023-07-02T17:42:18.777Z,4.90
2023-07-02T17:44:47.206Z,4.85
2023-07-02T17:47:16.917Z,4.32
2023-07-02T17:49:45.486Z,4.07
2023-07-02T17:52:14.848Z,3.95
2023-07-02T17:54:50.745Z,4.00
2023-07-02T17:57:19.053Z,3.85
2023-07-02T17:59:47.399Z,4.22
2023-07-02T18:02:16.210Z,3.72
2023-07-02T18:04:44.780Z,4.25
2023-07-02T18:07:17.965Z,3.85
2023-07-02T18:09:47.177Z,3.70
2023-07-02T18:12:20.040Z,4.97
2023-07-02T18:14:46.923Z,5.53
2023-07-02T18:17:13.693Z,25.05
2023-07-02T18:19:40.522Z,13.95
2023-07-02T18:22:07.580Z,7.45
2023-07-02T18:24:36.505Z,5.35
2023-07-02T18:27:04.613Z,4.30
2023-07-02T18:29:33.424Z,3.80
2023-07-02T18:32:06.385Z,4.00
2023-07-02T18:34:36.482Z,3.65
2023-07-02T18:37:04.715Z,3.85
2023-07-02T18:39:35.517Z,3.85
2023-07-02T18:42:05.447Z,3.88
2023-07-02T18:44:35.734Z,3.63
2023-07-02T18:47:10.398Z,4.40
2023-07-02T18:49:37.812Z,4.25
2023-07-02T18:52:07.433Z,4.47
2023-07-02T18:54:35.905Z,4.10
2023-07-02T18:57:04.722Z,3.92
2023-07-02T18:59:31.840Z,4.13
2023-07-02T19:02:00.087Z,4.47
2023-07-02T19:04:27.852Z,4.50
2023-07-02T19:06:57.510Z,4.43
2023-07-02T19:09:24.868Z,4.35
2023-07-02T19:11:52.357Z,3.72
2023-07-02T19:14:19.023Z,4.07
2023-07-02T19:16:46.088Z,4.10
2023-07-02T19:19:12.926Z,3.70
2023-07-02T19:21:39.589Z,5.45
2023-07-02T19:24:06.528Z,4.20
2023-07-02T19:26:33.301Z,4.47
2023-07-02T19:29:00.121Z,3.83
2023-07-02T19:31:29.007Z,4.45
2023-07-02T19:33:56.510Z,4.35
2023-07-02T19:36:23.246Z,3.70
2023-07-02T19:38:50.223Z,3.63
2023-07-02T19:41:16.921Z,4.28
2023-07-02T19:43:43.671Z,4.22
2023-07-02T19:46:10.410Z,4.20
2023-07-02T19:48:37.152Z,4.25
2023-07-02T19:51:05.661Z,4.68
2023-07-02T19:53:32.819Z,4.57
2023-07-02T19:56:00.432Z,4.18
2023-07-02T19:58:27.128Z,4.07
2023-07-02T20:00:53.861Z,4.50
2023-07-02T20:03:20.996Z,4.07
2023-07-02T20:05:49.131Z,4.55
2023-07-02T20:08:16.241Z,4.88
2023-07-02T20:10:42.921Z,5.05
2023-07-02T20:13:09.605Z,4.35
2023-07-02T20:15:36.344Z,4.70
2023-07-02T20:18:04.390Z,4.55
2023-07-02T20:20:32.110Z,4.00
2023-07-02T20:22:59.233Z,4.75
2023-07-02T20:27:58.695Z,4.60
2023-07-02T20:30:25.369Z,4.22
2023-07-02T20:32:52.291Z,4.65
2023-07-02T20:35:20.462Z,4.25
2023-07-02T20:37:52.066Z,5.35
2023-07-02T20:40:19.131Z,5.35
2023-07-02T20:42:45.816Z,4.13
2023-07-02T20:45:13.977Z,4.15
2023-07-02T20:47:42.103Z,4.80
2023-07-02T20:50:14.408Z,4.82
2023-07-02T20:52:41.882Z,5.35
2023-07-02T20:55:09.076Z,4.63
2023-07-02T20:57:35.836Z,4.72
2023-07-02T21:00:04.665Z,4.93
2023-07-02T21:02:31.412Z,7.03
2023-07-02T21:04:58.355Z,7.35
2023-07-02T21:07:26.442Z,9.68
2023-07-02T21:09:53.132Z,10.40
2023-07-02T21:12:19.913Z,9.05
2023-07-02T21:14:51.001Z,7.70
2023-07-02T21:17:17.831Z,8.63
2023-07-02T21:19:44.672Z,8.27
2023-07-02T21:22:11.410Z,7.90
2023-07-02T21:24:38.184Z,7.00
2023-07-02T21:27:05.326Z,6.53
2023-07-02T21:29:32.464Z,5.78
2023-07-02T21:31:59.264Z,6.55
2023-07-02T21:34:26.653Z,5.63
2023-07-02T21:36:53.400Z,5.35
2023-07-02T21:39:20.091Z,5.10
2023-07-02T21:41:48.578Z,4.90
2023-07-02T21:44:15.477Z,5.53
2023-07-02T21:46:42.299Z,5.47
2023-07-02T21:49:09.202Z,5.20
2023-07-02T21:51:35.899Z,5.63
2023-07-02T21:54:02.673Z,5.13
2023-07-02T21:56:29.369Z,4.78
2023-07-02T21:58:56.041Z,4.80
2023-07-02T22:01:22.740Z,5.07
2023-07-02T22:03:49.459Z,5.70
2023-07-02T22:06:16.185Z,5.78
2023-07-02T22:08:42.932Z,6.03
2023-07-02T22:11:23.175Z,6.38
2023-07-02T22:13:54.399Z,5.85
2023-07-02T22:16:21.233Z,6.25
2023-07-02T22:18:48.102Z,5.10
2023-07-02T22:21:15.035Z,5.90
2023-07-02T22:23:43.908Z,6.13
2023-07-02T22:26:10.783Z,5.97
2023-07-02T22:28:37.443Z,4.72
2023-07-02T22:31:06.515Z,5.43
2023-07-02T22:33:33.534Z,4.50
2023-07-02T22:36:00.204Z,5.45
2023-07-02T22:38:27.285Z,5.18
2023-07-02T22:40:54.035Z,4.65
2023-07-02T22:43:20.701Z,5.30
2023-07-02T22:45:47.759Z,5.45
2023-07-02T22:48:14.446Z,5.95
2023-07-02T22:50:41.148Z,5.72
2023-07-02T22:53:07.777Z,5.68
2023-07-02T22:55:34.426Z,5.32
2023-07-02T22:58:02.418Z,5.38
2023-07-02T23:00:29.357Z,4.85
2023-07-02T23:02:56.130Z,4.90
2023-07-02T23:05:23.940Z,4.95
2023-07-02T23:07:50.931Z,5.38
2023-07-02T23:10:17.925Z,5.25
2023-07-02T23:12:49.654Z,4.60
2023-07-02T23:15:19.094Z,5.00
2023-07-02T23:17:55.115Z,4.53
2023-07-02T23:20:21.996Z,4.35
2023-07-02T23:22:51.101Z,5.00
2023-07-02T23:25:24.872Z,4.68
2023-07-02T23:28:10.718Z,4.80
2023-07-02T23:30:55.164Z,5.10
2023-07-02T23:36:26.744Z,4.70
2023-07-02T23:39:00.932Z,5.07
2023-07-02T23:41:44.641Z,4.97
2023-07-02T23:44:18.893Z,5.30
2023-07-02T23:46:45.613Z,4.60
2023-07-02T23:49:12.512Z,4.60
2023-07-02T23:51:39.229Z,4.80
2023-07-02T23:54:05.896Z,4.30
2023-07-02T23:56:32.649Z,4.90
2023-07-02T23:58:59.318Z,4.90
